sensor_id;sensor_type;location;lat;lon;timestamp;pressure;altitude;pressure_sealevel;temperature;humidity
37610;BME280;23457;51.966;8.230;2023-03-01T00:01:20;102414.19;;;-0.49;86.72
37610;BME280;23457;51.966;8.230;2023-03-01T00:03:47;102419.69;;;-0.54;86.57
37610;BME280;23457;51.966;8.230;2023-03-01T00:06:14;102421.81;;;-0.59;87.22
37610;BME280;23457;51.966;8.230;2023-03-01T00:08:41;102429.56;;;-0.67;87.37
37610;BME280;23457;51.966;8.230;2023-03-01T00:11:32;102424.47;;;-0.67;87.30
37610;BME280;23457;51.966;8.230;2023-03-01T00:14:02;102418.94;;;-0.72;88.36
37610;BME280;23457;51.966;8.230;2023-03-01T00:16:33;102416.94;;;-0.66;88.00
37610;BME280;23457;51.966;8.230;2023-03-01T00:19:01;102420.53;;;-0.64;88.56
37610;BME280;23457;51.966;8.230;2023-03-01T00:21:28;102422.06;;;-0.66;88.13
37610;BME280;23457;51.966;8.230;2023-03-01T00:23:55;102416.63;;;-0.79;88.04
37610;BME280;23457;51.966;8.230;2023-03-01T00:26:23;102411.88;;;-0.85;87.57
37610;BME280;23457;51.966;8.230;2023-03-01T00:28:50;102408.69;;;-0.82;87.47
37610;BME280;23457;51.966;8.230;2023-03-01T00:31:20;102405.59;;;-0.59;87.61
37610;BME280;23457;51.966;8.230;2023-03-01T00:33:47;102402.91;;;-0.61;87.22
37610;BME280;23457;51.966;8.230;2023-03-01T00:36:15;102401.06;;;-0.72;87.71
37610;BME280;23457;51.966;8.230;2023-03-01T00:38:44;102409.91;;;-0.68;87.53
37610;BME280;23457;51.966;8.230;2023-03-01T00:41:13;102418.44;;;-0.78;88.09
37610;BME280;23457;51.966;8.230;2023-03-01T00:43:40;102416.91;;;-0.76;88.38
37610;BME280;23457;51.966;8.230;2023-03-01T00:46:18;102415.88;;;-0.78;88.03
37610;BME280;23457;51.966;8.230;2023-03-01T00:48:46;102414.06;;;-0.79;88.08
37610;BME280;23457;51.966;8.230;2023-03-01T00:51:17;102410.69;;;-0.88;88.31
37610;BME280;23457;51.966;8.230;2023-03-01T00:53:44;102406.47;;;-0.88;88.72
37610;BME280;23457;51.966;8.230;2023-03-01T00:56:12;102417.81;;;-0.94;89.09
37610;BME280;23457;51.966;8.230;2023-03-01T00:58:39;102408.38;;;-0.95;88.90
37610;BME280;23457;51.966;8.230;2023-03-01T01:01:15;102409.41;;;-0.93;89.37
37610;BME280;23457;51.966;8.230;2023-03-01T01:03:51;102410.91;;;-0.95;89.42
37610;BME280;23457;51.966;8.230;2023-03-01T01:06:23;102405.81;;;-0.95;89.55
37610;BME280;23457;51.966;8.230;2023-03-01T01:08:51;102400.19;;;-1.01;89.33
37610;BME280;23457;51.966;8.230;2023-03-01T01:11:20;102398.88;;;-1.06;89.62
37610;BME280;23457;51.966;8.230;2023-03-01T01:13:48;102399.41;;;-1.00;89.69
37610;BME280;23457;51.966;8.230;2023-03-01T01:16:17;102405.50;;;-1.09;89.16
37610;BME280;23457;51.966;8.230;2023-03-01T01:18:44;102404.69;;;-1.18;89.89
37610;BME280;23457;51.966;8.230;2023-03-01T01:21:13;102394.19;;;-1.21;90.51
37610;BME280;23457;51.966;8.230;2023-03-01T01:23:41;102389.09;;;-1.21;90.23
37610;BME280;23457;51.966;8.230;2023-03-01T01:26:13;102389.09;;;-1.21;90.73
37610;BME280;23457;51.966;8.230;2023-03-01T01:28:40;102395.94;;;-1.30;90.61
37610;BME280;23457;51.966;8.230;2023-03-01T01:31:07;102388.28;;;-1.30;91.63
37610;BME280;23457;51.966;8.230;2023-03-01T01:33:34;102384.59;;;-1.23;91.00
37610;BME280;23457;51.966;8.230;2023-03-01T01:36:01;102386.47;;;-1.31;90.87
37610;BME280;23457;51.966;8.230;2023-03-01T01:38:28;102378.69;;;-1.32;91.30
37610;BME280;23457;51.966;8.230;2023-03-01T01:40:54;102376.81;;;-1.25;90.76
37610;BME280;23457;51.966;8.230;2023-03-01T01:43:26;102363.72;;;-1.38;90.61
37610;BME280;23457;51.966;8.230;2023-03-01T01:45:56;102369.56;;;-1.39;91.43
37610;BME280;23457;51.966;8.230;2023-03-01T01:48:32;102363.72;;;-1.38;91.44
37610;BME280;23457;51.966;8.230;2023-03-01T01:51:11;102366.41;;;-1.36;91.44
37610;BME280;23457;51.966;8.230;2023-03-01T01:53:40;102358.50;;;-1.39;91.42
37610;BME280;23457;51.966;8.230;2023-03-01T01:56:09;102357.72;;;-1.38;91.19
37610;BME280;23457;51.966;8.230;2023-03-01T01:58:40;102364.97;;;-1.43;91.12
37610;BME280;23457;51.966;8.230;2023-03-01T02:01:07;102358.69;;;-1.47;91.10
37610;BME280;23457;51.966;8.230;2023-03-01T02:03:37;102353.31;;;-1.50;90.99
37610;BME280;23457;51.966;8.230;2023-03-01T02:06:34;102350.28;;;-1.64;91.88
37610;BME280;23457;51.966;8.230;2023-03-01T02:09:07;102351.69;;;-1.68;91.75
37610;BME280;23457;51.966;8.230;2023-03-01T02:11:35;102353.63;;;-1.65;91.97
37610;BME280;23457;51.966;8.230;2023-03-01T02:14:04;102357.06;;;-1.65;92.34
37610;BME280;23457;51.966;8.230;2023-03-01T02:16:31;102357.38;;;-1.70;91.75
37610;BME280;23457;51.966;8.230;2023-03-01T02:18:59;102357.09;;;-1.73;92.26
37610;BME280;23457;51.966;8.230;2023-03-01T02:24:38;102344.03;;;-1.68;92.70
37610;BME280;23457;51.966;8.230;2023-03-01T02:27:06;102343.41;;;-1.65;92.73
37610;BME280;23457;51.966;8.230;2023-03-01T02:29:33;102355.59;;;-1.71;92.84
37610;BME280;23457;51.966;8.230;2023-03-01T02:32:01;102347.41;;;-1.77;92.25
37610;BME280;23457;51.966;8.230;2023-03-01T02:34:31;102352.22;;;-1.81;92.59
37610;BME280;23457;51.966;8.230;2023-03-01T02:37:06;102353.88;;;-1.81;92.88
37610;BME280;23457;51.966;8.230;2023-03-01T02:39:44;102353.56;;;-1.84;92.95
37610;BME280;23457;51.966;8.230;2023-03-01T02:42:15;102351.19;;;-1.83;92.74
37610;BME280;23457;51.966;8.230;2023-03-01T02:44:44;102348.81;;;-1.90;93.39
37610;BME280;23457;51.966;8.230;2023-03-01T02:47:11;102345.78;;;-1.86;93.69
37610;BME280;23457;51.966;8.230;2023-03-01T02:49:37;102359.84;;;-1.81;93.25
37610;BME280;23457;51.966;8.230;2023-03-01T02:55:10;102346.81;;;-1.84;92.47
37610;BME280;23457;51.966;8.230;2023-03-01T02:57:39;102339.25;;;-1.92;92.89
37610;BME280;23457;51.966;8.230;2023-03-01T03:00:09;102349.16;;;-1.95;93.03
37610;BME280;23457;51.966;8.230;2023-03-01T03:02:37;102342.59;;;-2.02;92.86
37610;BME280;23457;51.966;8.230;2023-03-01T03:05:12;102338.44;;;-2.10;93.34
37610;BME280;23457;51.966;8.230;2023-03-01T03:07:42;102346.84;;;-2.11;93.66
37610;BME280;23457;51.966;8.230;2023-03-01T03:10:21;102343.53;;;-2.10;93.54
37610;BME280;23457;51.966;8.230;2023-03-01T03:12:53;102339.34;;;-2.09;93.42
37610;BME280;23457;51.966;8.230;2023-03-01T03:15:21;102336.00;;;-2.27;93.23
37610;BME280;23457;51.966;8.230;2023-03-01T03:17:50;102328.78;;;-2.23;94.27
37610;BME280;23457;51.966;8.230;2023-03-01T03:20:20;102327.38;;;-2.10;94.23
37610;BME280;23457;51.966;8.230;2023-03-01T03:22:47;102322.63;;;-2.16;93.90
37610;BME280;23457;51.966;8.230;2023-03-01T03:25:16;102314.41;;;-2.22;94.31
37610;BME280;23457;51.966;8.230;2023-03-01T03:27:44;102322.94;;;-2.22;94.47
37610;BME280;23457;51.966;8.230;2023-03-01T03:30:15;102316.94;;;-2.22;94.11
37610;BME280;23457;51.966;8.230;2023-03-01T03:32:46;102319.03;;;-2.18;94.69
37610;BME280;23457;51.966;8.230;2023-03-01T03:37:52;102314.69;;;-2.19;94.40
37610;BME280;23457;51.966;8.230;2023-03-01T03:42:59;102311.53;;;-2.17;94.10
37610;BME280;23457;51.966;8.230;2023-03-01T03:45:26;102311.19;;;-2.11;94.71
37610;BME280;23457;51.966;8.230;2023-03-01T03:47:53;102308.63;;;-2.11;94.54
37610;BME280;23457;51.966;8.230;2023-03-01T03:50:19;102308.16;;;-2.07;94.53
37610;BME280;23457;51.966;8.230;2023-03-01T03:52:47;102302.47;;;-1.86;94.96
37610;BME280;23457;51.966;8.230;2023-03-01T03:55:13;102302.94;;;-1.90;93.87
37610;BME280;23457;51.966;8.230;2023-03-01T03:57:41;102302.94;;;-1.90;93.76
37610;BME280;23457;51.966;8.230;2023-03-01T04:00:10;102300.25;;;-1.72;93.19
37610;BME280;23457;51.966;8.230;2023-03-01T04:02:41;102292.09;;;-1.78;93.17
37610;BME280;23457;51.966;8.230;2023-03-01T04:05:13;102294.34;;;-1.82;93.19
37610;BME280;23457;51.966;8.230;2023-03-01T04:07:41;102283.47;;;-1.70;93.04
37610;BME280;23457;51.966;8.230;2023-03-01T04:10:15;102289.31;;;-1.71;93.23
37610;BME280;23457;51.966;8.230;2023-03-01T04:12:42;102287.88;;;-1.78;93.59
37610;BME280;23457;51.966;8.230;2023-03-01T04:15:11;102284.34;;;-1.89;93.02
37610;BME280;23457;51.966;8.230;2023-03-01T04:17:46;102281.53;;;-1.92;93.23
37610;BME280;23457;51.966;8.230;2023-03-01T04:20:16;102284.09;;;-1.92;93.45
37610;BME280;23457;51.966;8.230;2023-03-01T04:22:53;102288.91;;;-1.95;93.38
37610;BME280;23457;51.966;8.230;2023-03-01T04:25:24;102286.50;;;-1.93;93.75
37610;BME280;23457;51.966;8.230;2023-03-01T04:27:51;102289.31;;;-1.90;94.09
37610;BME280;23457;51.966;8.230;2023-03-01T04:30:18;102285.59;;;-1.94;93.79
37610;BME280;23457;51.966;8.230;2023-03-01T04:32:45;102290.97;;;-1.91;93.30
37610;BME280;23457;51.966;8.230;2023-03-01T04:35:11;102281.72;;;-1.99;93.80
37610;BME280;23457;51.966;8.230;2023-03-01T04:37:38;102277.31;;;-2.10;93.72
37610;BME280;23457;51.966;8.230;2023-03-01T04:40:11;102280.63;;;-2.11;93.94
37610;BME280;23457;51.966;8.230;2023-03-01T04:42:44;102286.31;;;-2.13;94.15
37610;BME280;23457;51.966;8.230;2023-03-01T04:45:13;102293.06;;;-2.14;94.29
37610;BME280;23457;51.966;8.230;2023-03-01T04:47:42;102293.94;;;-2.05;93.73
37610;BME280;23457;51.966;8.230;2023-03-01T04:50:10;102288.47;;;-2.18;93.79
37610;BME280;23457;51.966;8.230;2023-03-01T04:52:38;102292.06;;;-2.16;93.30
37610;BME280;23457;51.966;8.230;2023-03-01T04:55:05;102283.63;;;-2.15;93.78
37610;BME280;23457;51.966;8.230;2023-03-01T04:57:33;102284.19;;;-2.09;93.15
37610;BME280;23457;51.966;8.230;2023-03-01T04:59:59;102277.78;;;-2.14;93.48
37610;BME280;23457;51.966;8.230;2023-03-01T05:02:26;102281.50;;;-2.10;93.05
37610;BME280;23457;51.966;8.230;2023-03-01T05:04:53;102288.72;;;-2.15;93.13
37610;BME280;23457;51.966;8.230;2023-03-01T05:07:24;102290.41;;;-2.15;93.86
37610;BME280;23457;51.966;8.230;2023-03-01T05:09:51;102286.38;;;-2.22;94.00
37610;BME280;23457;51.966;8.230;2023-03-01T05:12:20;102283.53;;;-2.25;94.56
37610;BME280;23457;51.966;8.230;2023-03-01T05:14:47;102283.75;;;-2.32;94.69
37610;BME280;23457;51.966;8.230;2023-03-01T05:17:14;102285.94;;;-2.27;94.40
37610;BME280;23457;51.966;8.230;2023-03-01T05:19:40;102288.50;;;-2.27;94.73
37610;BME280;23457;51.966;8.230;2023-03-01T05:22:09;102286.75;;;-2.36;94.58
37610;BME280;23457;51.966;8.230;2023-03-01T05:24:36;102286.53;;;-2.48;95.25
37610;BME280;23457;51.966;8.230;2023-03-01T05:27:03;102279.59;;;-2.40;95.01
37610;BME280;23457;51.966;8.230;2023-03-01T05:29:30;102280.16;;;-2.34;94.88
37610;BME280;23457;51.966;8.230;2023-03-01T05:32:02;102278.28;;;-2.45;94.84
37610;BME280;23457;51.966;8.230;2023-03-01T05:34:36;102278.75;;;-2.49;95.64
37610;BME280;23457;51.966;8.230;2023-03-01T05:37:03;102279.66;;;-2.49;95.86
37610;BME280;23457;51.966;8.230;2023-03-01T05:39:39;102276.50;;;-2.46;95.37
37610;BME280;23457;51.966;8.230;2023-03-01T05:42:10;102274.00;;;-2.55;94.91
37610;BME280;23457;51.966;8.230;2023-03-01T05:44:44;102280.00;;;-2.55;95.81
37610;BME280;23457;51.966;8.230;2023-03-01T05:47:10;102279.69;;;-2.58;95.80
37610;BME280;23457;51.966;8.230;2023-03-01T05:49:37;102286.59;;;-2.57;95.71
37610;BME280;23457;51.966;8.230;2023-03-01T05:52:05;102283.44;;;-2.63;95.28
37610;BME280;23457;51.966;8.230;2023-03-01T05:54:32;102284.78;;;-2.58;95.76
37610;BME280;23457;51.966;8.230;2023-03-01T05:56:59;102275.50;;;-2.57;95.37
37610;BME280;23457;51.966;8.230;2023-03-01T05:59:26;102283.31;;;-2.64;95.77
37610;BME280;23457;51.966;8.230;2023-03-01T06:01:52;102278.38;;;-2.63;95.43
37610;BME280;23457;51.966;8.230;2023-03-01T06:04:19;102279.75;;;-2.75;95.44
37610;BME280;23457;51.966;8.230;2023-03-01T06:06:47;102275.44;;;-2.76;95.82
37610;BME280;23457;51.966;8.230;2023-03-01T06:09:14;102275.44;;;-2.76;95.99
37610;BME280;23457;51.966;8.230;2023-03-01T06:11:41;102277.97;;;-2.76;96.17
37610;BME280;23457;51.966;8.230;2023-03-01T06:14:07;102287.50;;;-2.65;96.52
37610;BME280;23457;51.966;8.230;2023-03-01T06:16:34;102286.00;;;-2.63;97.05
37610;BME280;23457;51.966;8.230;2023-03-01T06:19:01;102282.41;;;-2.65;96.39
37610;BME280;23457;51.966;8.230;2023-03-01T06:21:28;102293.53;;;-2.73;96.79
37610;BME280;23457;51.966;8.230;2023-03-01T06:23:54;102297.13;;;-2.71;96.50
37610;BME280;23457;51.966;8.230;2023-03-01T06:26:21;102300.97;;;-2.66;96.07
37610;BME280;23457;51.966;8.230;2023-03-01T06:28:48;102299.31;;;-2.57;96.11
37610;BME280;23457;51.966;8.230;2023-03-01T06:31:15;102290.63;;;-2.59;95.26
37610;BME280;23457;51.966;8.230;2023-03-01T06:33:41;102289.88;;;-2.58;96.10
37610;BME280;23457;51.966;8.230;2023-03-01T06:36:08;102296.41;;;-2.51;95.68
37610;BME280;23457;51.966;8.230;2023-03-01T06:38:36;102287.13;;;-2.42;96.08
37610;BME280;23457;51.966;8.230;2023-03-01T06:41:03;102281.28;;;-2.41;95.83
37610;BME280;23457;51.966;8.230;2023-03-01T06:43:30;102280.63;;;-2.38;95.16
37610;BME280;23457;51.966;8.230;2023-03-01T06:45:57;102273.84;;;-2.29;95.49
37610;BME280;23457;51.966;8.230;2023-03-01T06:48:24;102279.78;;;-2.20;95.12
37610;BME280;23457;51.966;8.230;2023-03-01T06:50:51;102281.19;;;-2.05;94.60
37610;BME280;23457;51.966;8.230;2023-03-01T06:53:18;102287.41;;;-1.93;94.10
37610;BME280;23457;51.966;8.230;2023-03-01T06:55:44;102282.84;;;-1.87;93.75
37610;BME280;23457;51.966;8.230;2023-03-01T06:58:11;102272.50;;;-1.88;92.93
37610;BME280;23457;51.966;8.230;2023-03-01T07:00:38;102273.22;;;-1.81;92.83
37610;BME280;23457;51.966;8.230;2023-03-01T07:03:08;102272.28;;;-1.62;93.14
37610;BME280;23457;51.966;8.230;2023-03-01T07:05:35;102277.72;;;-1.49;92.35
37610;BME280;23457;51.966;8.230;2023-03-01T07:08:01;102266.00;;;-1.47;92.43
37610;BME280;23457;51.966;8.230;2023-03-01T07:10:28;102267.78;;;-1.27;92.16
37610;BME280;23457;51.966;8.230;2023-03-01T07:12:56;102266.78;;;-1.19;91.75
37610;BME280;23457;51.966;8.230;2023-03-01T07:15:25;102258.28;;;-0.99;90.35
37610;BME280;23457;51.966;8.230;2023-03-01T07:17:52;102257.38;;;-1.00;89.93
37610;BME280;23457;51.966;8.230;2023-03-01T07:20:19;102255.66;;;-0.81;90.07
37610;BME280;23457;51.966;8.230;2023-03-01T07:22:51;102257.06;;;-0.74;89.09
37610;BME280;23457;51.966;8.230;2023-03-01T07:25:18;102261.69;;;-0.60;88.69
37610;BME280;23457;51.966;8.230;2023-03-01T07:27:49;102248.31;;;-0.47;88.32
37610;BME280;23457;51.966;8.230;2023-03-01T07:30:17;102250.22;;;-0.45;88.42
37610;BME280;23457;51.966;8.230;2023-03-01T07:32:44;102245.63;;;-0.49;88.22
37610;BME280;23457;51.966;8.230;2023-03-01T07:35:12;102242.28;;;-0.38;87.80
37610;BME280;23457;51.966;8.230;2023-03-01T07:37:39;102253.16;;;-0.20;87.28
37610;BME280;23457;51.966;8.230;2023-03-01T07:40:06;102244.84;;;-0.07;86.48
37610;BME280;23457;51.966;8.230;2023-03-01T07:42:33;102246.25;;;-0.11;85.97
37610;BME280;23457;51.966;8.230;2023-03-01T07:45:00;102243.31;;;-0.05;86.19
37610;BME280;23457;51.966;8.230;2023-03-01T07:47:27;102242.53;;;0.06;85.50
37610;BME280;23457;51.966;8.230;2023-03-01T07:49:54;102242.94;;;0.11;85.09
37610;BME280;23457;51.966;8.230;2023-03-01T07:52:20;102247.09;;;0.30;84.29
37610;BME280;23457;51.966;8.230;2023-03-01T07:54:47;102248.47;;;0.47;83.78
37610;BME280;23457;51.966;8.230;2023-03-01T07:57:14;102255.50;;;0.50;83.46
37610;BME280;23457;51.966;8.230;2023-03-01T07:59:41;102246.06;;;0.70;82.75
37610;BME280;23457;51.966;8.230;2023-03-01T08:02:08;102252.34;;;0.74;82.46
37610;BME280;23457;51.966;8.230;2023-03-01T08:04:36;102245.75;;;0.88;81.16
37610;BME280;23457;51.966;8.230;2023-03-01T08:07:05;102249.44;;;0.91;80.25
37610;BME280;23457;51.966;8.230;2023-03-01T08:09:34;102253.31;;;0.86;80.17
37610;BME280;23457;51.966;8.230;2023-03-01T08:12:01;102244.16;;;1.22;79.00
37610;BME280;23457;51.966;8.230;2023-03-01T08:14:28;102249.41;;;1.23;78.59
37610;BME280;23457;51.966;8.230;2023-03-01T08:16:54;102251.53;;;1.29;77.64
37610;BME280;23457;51.966;8.230;2023-03-01T08:19:21;102248.84;;;1.27;78.17
37610;BME280;23457;51.966;8.230;2023-03-01T08:21:48;102246.56;;;1.42;77.37
37610;BME280;23457;51.966;8.230;2023-03-01T08:24:15;102247.63;;;1.56;77.44
37610;BME280;23457;51.966;8.230;2023-03-01T08:26:42;102240.63;;;1.65;75.82
37610;BME280;23457;51.966;8.230;2023-03-01T08:29:08;102236.09;;;1.72;74.92
37610;BME280;23457;51.966;8.230;2023-03-01T08:31:38;102247.69;;;1.79;73.35
37610;BME280;23457;51.966;8.230;2023-03-01T08:34:10;102241.81;;;1.92;73.98
37610;BME280;23457;51.966;8.230;2023-03-01T08:36:41;102236.91;;;1.95;72.92
37610;BME280;23457;51.966;8.230;2023-03-01T08:39:10;102226.78;;;2.08;71.87
37610;BME280;23457;51.966;8.230;2023-03-01T08:41:38;102227.91;;;2.00;71.28
37610;BME280;23457;51.966;8.230;2023-03-01T08:44:05;102231.94;;;2.31;71.05
37610;BME280;23457;51.966;8.230;2023-03-01T08:46:38;102230.81;;;2.16;68.17
37610;BME280;23457;51.966;8.230;2023-03-01T08:49:11;102232.50;;;2.27;68.87
37610;BME280;23457;51.966;8.230;2023-03-01T08:51:38;102232.41;;;2.37;67.10
37610;BME280;23457;51.966;8.230;2023-03-01T08:54:17;102227.50;;;2.40;65.89
37610;BME280;23457;51.966;8.230;2023-03-01T08:56:44;102231.25;;;2.45;66.30
37610;BME280;23457;51.966;8.230;2023-03-01T08:59:12;102232.94;;;2.57;65.56
37610;BME280;23457;51.966;8.230;2023-03-01T09:01:40;102236.13;;;2.89;65.02
37610;BME280;23457;51.966;8.230;2023-03-01T09:04:14;102224.31;;;2.91;64.10
37610;BME280;23457;51.966;8.230;2023-03-01T09:06:41;102235.69;;;2.83;62.81
37610;BME280;23457;51.966;8.230;2023-03-01T09:09:14;102227.13;;;3.07;63.98
37610;BME280;23457;51.966;8.230;2023-03-01T09:11:44;102227.41;;;2.99;62.13
37610;BME280;23457;51.966;8.230;2023-03-01T09:14:16;102227.84;;;2.93;61.30
37610;BME280;23457;51.966;8.230;2023-03-01T09:16:43;102224.75;;;2.85;61.37
37610;BME280;23457;51.966;8.230;2023-03-01T09:19:10;102226.06;;;2.92;60.62
37610;BME280;23457;51.966;8.230;2023-03-01T09:21:37;102230.56;;;2.83;60.50
37610;BME280;23457;51.966;8.230;2023-03-01T09:24:14;102223.47;;;2.92;59.92
37610;BME280;23457;51.966;8.230;2023-03-01T09:26:41;102215.28;;;3.09;60.06
37610;BME280;23457;51.966;8.230;2023-03-01T09:29:08;102215.66;;;3.02;59.45
37610;BME280;23457;51.966;8.230;2023-03-01T09:31:36;102205.56;;;3.42;58.98
37610;BME280;23457;51.966;8.230;2023-03-01T09:34:03;102207.84;;;3.75;59.51
37610;BME280;23457;51.966;8.230;2023-03-01T09:36:30;102210.28;;;3.36;58.37
37610;BME280;23457;51.966;8.230;2023-03-01T09:38:57;102211.94;;;3.10;58.78
37610;BME280;23457;51.966;8.230;2023-03-01T09:46:44;102207.44;;;3.19;58.36
37610;BME280;23457;51.966;8.230;2023-03-01T09:49:17;102198.44;;;3.38;57.55
37610;BME280;23457;51.966;8.230;2023-03-01T09:52:03;102195.47;;;3.45;57.59
37610;BME280;23457;51.966;8.230;2023-03-01T09:54:33;102196.03;;;3.28;56.97
37610;BME280;23457;51.966;8.230;2023-03-01T10:02:43;102180.19;;;4.11;55.00
37610;BME280;23457;51.966;8.230;2023-03-01T10:16:25;102190.88;;;4.04;53.73
37610;BME280;23457;51.966;8.230;2023-03-01T10:18:59;102198.84;;;3.82;54.20
37610;BME280;23457;51.966;8.230;2023-03-01T10:21:28;102189.78;;;4.00;54.35
37610;BME280;23457;51.966;8.230;2023-03-01T10:24:10;102181.97;;;3.99;54.35
37610;BME280;23457;51.966;8.230;2023-03-01T10:29:12;102177.50;;;4.49;54.10
37610;BME280;23457;51.966;8.230;2023-03-01T10:31:49;102181.56;;;4.45;52.68
37610;BME280;23457;51.966;8.230;2023-03-01T10:34:28;102181.56;;;4.32;53.18
37610;BME280;23457;51.966;8.230;2023-03-01T10:36:59;102183.16;;;4.43;52.99
37610;BME280;23457;51.966;8.230;2023-03-01T10:39:27;102171.88;;;4.02;53.89
37610;BME280;23457;51.966;8.230;2023-03-01T10:42:03;102171.78;;;4.13;53.56
37610;BME280;23457;51.966;8.230;2023-03-01T10:47:08;102167.91;;;4.20;53.68
37610;BME280;23457;51.966;8.230;2023-03-01T10:49:38;102169.56;;;4.46;53.85
37610;BME280;23457;51.966;8.230;2023-03-01T10:52:19;102168.50;;;4.03;54.07
37610;BME280;23457;51.966;8.230;2023-03-01T10:55:18;102160.38;;;4.23;54.31
37610;BME280;23457;51.966;8.230;2023-03-01T10:57:50;102154.91;;;4.45;53.56
37610;BME280;23457;51.966;8.230;2023-03-01T11:00:26;102160.50;;;4.79;53.09
37610;BME280;23457;51.966;8.230;2023-03-01T11:05:26;102158.38;;;4.45;53.57
37610;BME280;23457;51.966;8.230;2023-03-01T11:07:56;102154.16;;;4.74;52.58
37610;BME280;23457;51.966;8.230;2023-03-01T11:10:32;102144.19;;;5.06;52.67
37610;BME280;23457;51.966;8.230;2023-03-01T11:13:17;102148.44;;;5.20;52.35
37610;BME280;23457;51.966;8.230;2023-03-01T11:15:59;102145.66;;;4.75;52.58
37610;BME280;23457;51.966;8.230;2023-03-01T11:18:29;102141.06;;;4.84;52.38
37610;BME280;23457;51.966;8.230;2023-03-01T11:21:12;102140.03;;;5.23;52.12
37610;BME280;23457;51.966;8.230;2023-03-01T11:23:41;102140.03;;;5.23;51.77
37610;BME280;23457;51.966;8.230;2023-03-01T11:26:12;102137.03;;;5.02;51.71
37610;BME280;23457;51.966;8.230;2023-03-01T11:28:42;102124.88;;;5.57;51.02
37610;BME280;23457;51.966;8.230;2023-03-01T11:31:11;102128.50;;;5.60;50.23
37610;BME280;23457;51.966;8.230;2023-03-01T11:38:49;102130.81;;;6.15;50.68
37610;BME280;23457;51.966;8.230;2023-03-01T11:41:26;102129.44;;;6.21;49.87
37610;BME280;23457;51.966;8.230;2023-03-01T11:44:01;102126.69;;;6.96;48.87
37610;BME280;23457;51.966;8.230;2023-03-01T11:52:27;102119.91;;;6.82;50.58
37610;BME280;23457;51.966;8.230;2023-03-01T12:01:03;102114.13;;;6.71;49.16
37610;BME280;23457;51.966;8.230;2023-03-01T12:06:32;102109.44;;;6.64;49.69
37610;BME280;23457;51.966;8.230;2023-03-01T12:23:36;102080.06;;;6.62;48.72
37610;BME280;23457;51.966;8.230;2023-03-01T12:43:21;102048.38;;;6.99;47.46
37610;BME280;23457;51.966;8.230;2023-03-01T12:51:32;102024.25;;;7.32;46.66
37610;BME280;23457;51.966;8.230;2023-03-01T12:54:14;102024.09;;;7.29;47.03
37610;BME280;23457;51.966;8.230;2023-03-01T12:56:43;102027.41;;;7.27;46.66
37610;BME280;23457;51.966;8.230;2023-03-01T13:05:04;102023.09;;;7.09;46.40
37610;BME280;23457;51.966;8.230;2023-03-01T13:07:58;102008.81;;;7.00;46.45
37610;BME280;23457;51.966;8.230;2023-03-01T13:10:34;102014.50;;;6.93;46.74
37610;BME280;23457;51.966;8.230;2023-03-01T13:13:19;102009.78;;;7.02;47.16
37610;BME280;23457;51.966;8.230;2023-03-01T13:15:54;102012.59;;;7.40;46.16
37610;BME280;23457;51.966;8.230;2023-03-01T13:20:56;102001.06;;;7.51;44.85
37610;BME280;23457;51.966;8.230;2023-03-01T13:23:33;101997.31;;;7.45;44.19
37610;BME280;23457;51.966;8.230;2023-03-01T13:26:12;101999.88;;;7.63;45.10
37610;BME280;23457;51.966;8.230;2023-03-01T13:28:53;101996.53;;;7.30;44.31
37610;BME280;23457;51.966;8.230;2023-03-01T13:33:57;101993.34;;;7.35;44.53
37610;BME280;23457;51.966;8.230;2023-03-01T13:44:35;101989.66;;;7.48;45.10
37610;BME280;23457;51.966;8.230;2023-03-01T13:49:49;101981.38;;;7.90;46.06
37610;BME280;23457;51.966;8.230;2023-03-01T13:52:43;101974.91;;;7.45;45.01
37610;BME280;23457;51.966;8.230;2023-03-01T13:57:41;101961.69;;;7.57;46.19
37610;BME280;23457;51.966;8.230;2023-03-01T14:00:38;101971.28;;;7.60;45.77
37610;BME280;23457;51.966;8.230;2023-03-01T14:03:12;101963.66;;;7.63;43.93
37610;BME280;23457;51.966;8.230;2023-03-01T14:05:42;101953.75;;;7.72;44.13
37610;BME280;23457;51.966;8.230;2023-03-01T14:08:24;101959.44;;;8.02;45.13
37610;BME280;23457;51.966;8.230;2023-03-01T14:11:20;101960.59;;;7.89;45.15
37610;BME280;23457;51.966;8.230;2023-03-01T14:14:14;101953.63;;;7.88;45.19
37610;BME280;23457;51.966;8.230;2023-03-01T14:19:26;101947.78;;;7.55;45.58
37610;BME280;23457;51.966;8.230;2023-03-01T14:22:32;101942.13;;;7.64;45.53
37610;BME280;23457;51.966;8.230;2023-03-01T14:27:58;101940.28;;;7.98;44.88
37610;BME280;23457;51.966;8.230;2023-03-01T14:30:38;101940.56;;;7.85;45.24
37610;BME280;23457;51.966;8.230;2023-03-01T14:36:00;101933.88;;;7.71;45.52
37610;BME280;23457;51.966;8.230;2023-03-01T14:38:39;101931.22;;;7.88;45.48
37610;BME280;23457;51.966;8.230;2023-03-01T14:41:13;101920.47;;;7.99;44.65
37610;BME280;23457;51.966;8.230;2023-03-01T14:43:54;101915.47;;;7.65;44.81
37610;BME280;23457;51.966;8.230;2023-03-01T14:46:27;101912.94;;;7.66;45.26
37610;BME280;23457;51.966;8.230;2023-03-01T14:49:00;101914.72;;;7.67;45.80
37610;BME280;23457;51.966;8.230;2023-03-01T14:51:28;101902.00;;;7.91;46.50
37610;BME280;23457;51.966;8.230;2023-03-01T14:53:55;101907.75;;;7.84;45.55
37610;BME280;23457;51.966;8.230;2023-03-01T14:56:22;101897.59;;;7.51;46.14
37610;BME280;23457;51.966;8.230;2023-03-01T14:58:57;101900.03;;;7.48;46.25
37610;BME280;23457;51.966;8.230;2023-03-01T15:01:26;101894.50;;;7.78;45.97
37610;BME280;23457;51.966;8.230;2023-03-01T15:03:54;101895.31;;;7.77;45.72
37610;BME280;23457;51.966;8.230;2023-03-01T15:06:22;101892.72;;;7.77;46.27
37610;BME280;23457;51.966;8.230;2023-03-01T15:08:53;101893.28;;;7.89;45.13
37610;BME280;23457;51.966;8.230;2023-03-01T15:11:29;101894.94;;;8.06;45.15
37610;BME280;23457;51.966;8.230;2023-03-01T15:13:57;101881.72;;;8.00;44.85
37610;BME280;23457;51.966;8.230;2023-03-01T15:16:29;101879.94;;;8.18;44.76
37610;BME280;23457;51.966;8.230;2023-03-01T15:19:03;101872.25;;;8.20;44.38
37610;BME280;23457;51.966;8.230;2023-03-01T15:21:36;101879.78;;;8.33;44.35
37610;BME280;23457;51.966;8.230;2023-03-01T15:26:36;101878.38;;;8.41;44.42